Station: Ballera  

  Atmospheric Gas Attenuation - ITU Rec 676-11   ----------------- dB/100km -----------------
Date Time Temp RH % AH g/m3 Dew Point Wind Direction Speed kph Gust kph Barometer mB Rainfall Since 9am 24GHz 47GHz 76GHz 122GHz 134GHz 241GHz
03/05 13:20 27.3 43 11.25 13.6 17 22 1014.7 0 24.5 26.1 43.0 113.3 113.7 393.5
03/05 13:10 27.1 42 10.87 13.4 17 19 1014.7 0 23.7 25.6 41.8 109.9 109.4 378.6
03/05 13:00 27.2 42 10.93 13.2 11 17 1014.7 0 23.8 25.7 41.9 110.3 110.0 380.6
03/05 12:50 26.8 43 10.95 13.2 11 13 1014.7 0 23.9 25.8 42.2 111.0 110.8 383.3
03/05 12:40 26.1 44 10.77 12.9 13 15 1014.9 0 23.5 25.8 41.9 110.3 109.6 379.2
03/05 12:30 26.2 44 10.83 13 13 19 1015.1 0 23.6 25.8 42.1 110.7 110.2 381.3
03/05 12:20 25.6 45 10.71 12.8 15 17 1015 0 23.4 25.8 42.0 110.4 109.6 379.0
03/05 12:10 25.7 45 10.77 12.9 13 17 1015.2 0 23.6 25.9 42.1 110.8 110.2 381.1
03/05 12:00 25.2 46 10.71 12.8 15 24 1015.4 0 23.5 26.0 42.2 111.0 110.2 381.0
03/05 11:50 25.3 46 10.77 12.9 15 17 1015.5 0 23.6 26.0 42.4 111.4 110.7 383.1
03/05 11:40 24.7 47 10.64 12.6 19 22 1015.5 0 23.3 26.0 42.2 111.0 110.0 380.4
03/05 11:30 25 47 10.82 12.9 20 28 1015.9 0 23.7 26.2 42.7 112.4 111.8 386.8
03/05 11:20 24.7 47 10.64 12.6 20 24 1016 0 23.3 26.0 42.2 111.0 110.0 380.6
03/05 11:10 24.7 48 10.86 13 20 26 1016 0 23.8 26.4 43.0 113.2 112.7 390.0
03/05 11:00 25 47 10.82 12.9 19 28 1016 0 23.7 26.2 42.7 112.4 111.8 386.9
03/05 10:50 24.3 47 10.4 12.3 13 15 1015.9 0 22.9 25.8 41.5 109.2 107.7 372.2
03/05 10:40 24.3 48 10.62 12.6 15 20 1016.1 0 23.3 26.1 42.4 111.4 110.4 381.7
03/05 10:30 24.3 47 10.4 12.3 22 24 1016.2 0 22.9 25.8 41.5 109.2 107.7 372.3
03/05 10:20 23.8 47 10.11 11.8 19 22 1016.2 0 22.3 25.5 40.7 107.0 104.8 362.2
03/05 10:10 24.2 47 10.34 12.2 22 26 1016.2 0 22.7 25.7 41.4 108.7 107.1 370.2
03/05 10:00 23.9 47 10.17 11.9 19 24 1016.2 0 22.4 25.6 40.9 107.5 105.4 364.3
03/05 09:50 23.9 47 10.17 11.9 20 22 1016.1 0 22.4 25.6 40.9 107.5 105.4 364.3
03/05 09:40 23.3 49 10.24 12 22 26 1016.2 0 22.6 25.8 41.5 109.0 107.1 370.0
03/05 09:30 23.1 50 10.34 12.1 22 28 1016.2 0 22.8 26.0 41.9 110.2 108.6 375.3
03/05 09:20 22.7 53 10.71 12.6 24 26 1016.2 0 23.6 26.7 43.6 114.6 113.8 393.4
03/05 09:10 22.5 56 11.18 13.3 20 22 1016.1 0 24.6 27.5 45.5 119.7 120.0 415.3
03/05 09:00 22.4 57 11.32 13.5 19 24 1016.1 0 24.9 27.8 46.1 121.3 122.0 422.1
03/05 08:50 22 57 11.06 13.1 20 22 1015.7 0 24.4 27.5 45.3 119.2 119.2 412.3
03/05 08:39 21.5 63 11.88 14.2 24 26 1015.8 0 26.1 28.9 48.8 128.7 130.8 452.6
03/05 08:30 21.1 68 12.53 15 24 32 1016 0 27.5 30.2 51.8 136.5 140.2 485.6
03/05 08:20 20.8 71 12.85 15.4 24 28 1015.7 0 28.2 30.8 53.3 140.5 145.2 502.8
03/05 08:10 20.9 73 13.29 15.9 24 26 1015.5 0 29.2 31.5 55.1 145.3 151.1 523.4
03/05 08:00 21.1 75 13.82 16.5 22 30 1015.2 0 30.3 32.3 57.2 151.0 158.1 548.0
03/05 07:50 20.8 78 14.12 16.8 26 30 1015 0 30.9 33.0 58.7 155.0 163.0 565.0
03/05 07:40 20.6 80 14.32 17 22 26 1014.7 0 31.4 33.4 59.8 157.7 166.3 576.4
03/05 07:30 20.3 81 14.24 16.9 24 30 1014.7 0 31.2 33.4 59.6 157.4 165.8 574.6
03/05 07:20 20.4 78 13.8 16.4 22 28 1014.6 0 30.3 32.5 57.6 152.0 159.2 551.7
03/05 07:10 20.9 71 12.93 15.4 22 26 1014.3 0 28.4 30.8 53.5 141.1 145.9 505.5
03/05 07:00 21.4 60 11.25 13.3 7 20 1014 0 24.8 27.9 46.3 121.9 122.4 423.6
03/05 06:50 21.3 60 11.18 13.2 7 9 1013.9 0 24.7 27.8 46.1 121.3 121.7 420.9
03/05 06:40 21.5 59 11.12 13.2 9 11 1013.8 0 24.5 27.6 45.7 120.3 120.6 417.1
03/05 06:30 21.7 58 11.06 13.1 13 15 1013.8 0 24.4 27.5 45.4 119.4 119.5 413.3
03/05 06:20 22.3 55 10.86 12.8 11 13 1013.7 0 23.9 27.0 44.2 116.4 116.0 401.2
03/05 06:10 22.9 53 10.83 12.8 6 7 1013.4 0 23.8 26.7 43.8 115.2 114.7 396.8
03/05 06:00 23.9 48 10.38 12.2 17 35 1013.4 0 22.8 25.8 41.5 109.3 107.7 372.4
03/05 05:50 23.4 50 10.51 12.4 19 20 1013.4 0 23.1 26.1 42.3 111.2 110.0 380.4
03/05 05:40 22.6 53 10.65 12.5 17 19 1013.2 0 23.5 26.6 43.2 113.8 112.9 390.3
03/05 05:30 22.9 52 10.63 12.5 13 17 1012.7 0 23.4 26.4 43.0 113.1 112.2 387.8
03/05 05:20 22.5 54 10.79 12.7 13 17 1012.5 0 23.8 26.8 43.8 115.3 114.7 396.7
03/05 05:10 22.5 54 10.79 12.7 15 17 1012.4 0 23.8 26.8 43.8 115.3 114.7 396.7
03/05 05:00 22.6 54 10.85 12.8 17 19 1012.3 0 23.9 26.8 44.0 115.7 115.3 398.8
03/05 04:50 22.6 55 11.05 13.1 15 15 1012.2 0 24.3 27.1 44.7 117.8 117.9 407.7
03/05 04:40 22.6 55 11.05 13.1 13 15 1012.2 0 24.3 27.1 44.7 117.8 117.9 407.7
03/05 04:30 22.4 56 11.12 13.2 13 17 1012.1 0 24.5 27.3 45.1 118.8 119.0 411.8
03/05 04:20 22.3 56 11.06 13.1 13 13 1012 0 24.4 27.2 44.9 118.3 118.4 409.6
03/05 04:10 22.3 57 11.25 13.4 13 15 1012 0 24.8 27.5 45.7 120.3 120.8 418.1
03/05 04:00 22.4 57 11.32 13.5 13 15 1012 0 24.9 27.6 45.9 120.8 121.6 420.7
03/05 03:50 22.4 57 11.32 13.5 13 13 1012 0 24.9 27.6 45.9 120.8 121.6 420.7
03/05 03:40 22.6 57 11.45 13.7 15 15 1012.1 0 25.2 27.8 46.3 121.9 123.0 425.5
03/05 03:30 22.9 56 11.44 13.7 15 17 1012.1 0 25.1 27.7 46.1 121.3 122.4 423.5
03/05 03:20 23 56 11.51 13.8 15 17 1012.2 0 25.3 27.7 46.3 121.9 123.1 426.1
03/05 03:10 22.6 57 11.45 13.7 15 15 1012.2 0 25.2 27.8 46.3 121.9 123.0 425.6
03/05 03:00 22.6 58 11.65 13.9 15 17 1012.3 0 25.6 28.1 47.1 124.0 125.6 434.6
03/05 02:50 22.7 56 11.31 13.7 15 17 1012.4 0 24.9 27.5 45.7 120.3 121.0 418.8
03/05 02:40 22.9 57 11.65 13.9 17 19 1012.4 0 25.6 28.0 46.9 123.6 125.1 433.0
03/05 02:30 22.7 56 11.31 13.7 15 17 1012.4 0 24.9 27.5 45.7 120.3 121.0 418.8
03/05 02:20 22.8 57 11.58 13.8 17 17 1012.5 0 25.4 27.9 46.7 123.0 124.4 430.5
03/05 02:10 23 56 11.51 13.8 17 19 1012.4 0 25.3 27.7 46.3 122.0 123.1 426.2
03/05 02:00 22.8 57 11.58 13.8 17 19 1012.5 0 25.4 27.9 46.7 123.0 124.4 430.5
03/05 01:50 22.9 57 11.65 13.9 19 19 1012.5 0 25.6 28.0 46.9 123.6 125.1 433.1
03/05 01:40 23.1 55 11.37 13.8 19 19 1012.6 0 25.0 27.5 45.7 120.4 121.2 419.5
03/05 01:30 23.3 56 11.71 14 17 19 1012.6 0 25.7 28.0 46.9 123.6 125.2 433.6
03/05 01:20 23.3 57 11.92 14.3 15 17 1012.6 0 26.1 28.3 47.8 125.8 128.0 443.1
03/05 01:10 23.7 55 11.76 14.1 17 20 1012.7 0 25.8 27.9 46.9 123.5 125.3 433.7
03/05 01:00 23.8 55 11.83 14.2 19 20 1012.7 0 25.9 28.0 47.1 124.1 126.0 436.3
03/05 00:50 23.6 57 12.12 14.6 17 17 1012.8 0 26.5 28.5 48.4 127.5 130.1 450.5
03/05 00:40 23.7 57 12.19 14.7 15 17 1012.8 0 26.7 28.6 48.6 128.0 130.8 453.1
03/05 00:30 23.9 56 12.11 14.6 15 19 1012.8 0 26.5 28.4 48.1 126.9 129.4 448.4
03/05 00:20 24.2 55 12.1 14.6 17 19 1012.9 0 26.4 28.3 47.9 126.3 128.8 446.2
03/05 00:10 24.2 55 12.1 14.6 15 17 1013.2 0 26.4 28.3 47.9 126.3 128.9 446.3
03/05 00:00 24.2 54 11.88 14.3 15 19 1013.2 0 26.0 28.0 47.1 124.0 126.0 436.5
02/05 23:50 24.2 54 11.88 14.3 17 19 1013.4 0 26.0 28.0 47.1 124.1 126.1 436.5
02/05 23:40 23.8 56 12.05 14.5 13 15 1013.5 0 26.4 28.4 48.0 126.5 128.9 446.5
02/05 23:30 24.1 55 12.03 14.5 15 19 1013.5 0 26.3 28.3 47.7 125.8 128.2 443.9
02/05 23:20 24.2 56 12.32 14.9 15 17 1013.4 0 26.9 28.7 48.8 128.7 131.7 456.3
02/05 23:10 24.6 55 12.38 15 17 19 1013.5 0 27.0 28.7 48.8 128.7 131.8 456.8
02/05 23:00 24.3 58 12.83 15.5 15 19 1013.4 0 28.0 29.5 50.8 133.9 138.2 479.0
02/05 22:50 24.2 59 12.98 15.7 15 15 1013.7 0 28.3 29.8 51.5 135.7 140.4 486.6
02/05 22:40 24.6 57 12.83 15.5 15 15 1013.6 0 27.9 29.4 50.6 133.4 137.7 477.3
02/05 22:30 25 53 12.2 14.8 13 15 1013.6 0 26.6 28.2 47.9 126.2 128.9 446.4
02/05 22:20 25.4 51 12.01 14.5 13 13 1013.8 0 26.2 27.8 46.9 123.6 125.8 435.9
02/05 22:10 25.3 53 12.41 15 11 13 1013.8 0 27.0 28.5 48.5 127.9 131.1 454.2
02/05 22:00 25.8 50 12.04 14.6 13 17 1013.9 0 26.2 27.8 46.8 123.3 125.6 435.0
02/05 21:50 26.1 47 11.51 14.2 15 15 1013.9 0 25.1 26.9 44.6 117.5 118.5 410.4
02/05 21:40 25.9 50 12.11 14.7 15 17 1013.9 0 26.3 27.8 47.0 123.8 126.3 437.5
02/05 21:30 26.6 47 11.83 14.4 19 26 1014 0 25.7 27.2 45.5 120.0 121.7 421.6
02/05 21:20 26 52 12.66 15.4 15 17 1014 0 27.5 28.7 49.1 129.4 133.1 461.4
02/05 21:10 26.2 51 12.56 15.3 19 20 1013.9 0 27.3 28.4 48.6 128.0 131.5 455.7
02/05 21:00 26 53 12.9 15.7 22 28 1013.8 0 28.0 29.0 50.0 131.8 136.2 472.1
02/05 20:50 26.7 48 12.15 14.8 22 28 1013.8 0 26.4 27.6 46.7 123.0 125.5 434.9

Last Refresh: 03-May-2026 13:07:36

Bureau of Meteorology